Time;durP1;ratioP1;P1;durP2;ratioP2;P2;SDS_P1;SDS_P2;PMS_P1;PMS_P2;Temp;Humidity;BMP_temperature;BMP_pressure;BME280_temperature;BME280_humidity;BME280_pressure;Samples;Min_cycle;Max_cycle;Signal;HPM_P1;HPM_P2
2021/11/13 00:00:01;;;;;;;4.78;4.25;;;24.00;39.50;;;;;;1852942;77;21065;-38
2021/11/13 00:02:29;;;;;;;6.12;4.65;;;24.00;39.50;;;;;;1852948;77;21071;-38
2021/11/13 00:04:56;;;;;;;6.15;4.50;;;24.00;39.50;;;;;;1853055;77;21585;-39
2021/11/13 00:07:24;;;;;;;7.85;5.90;;;24.00;39.70;;;;;;1852912;77;21090;-38
2021/11/13 00:09:52;;;;;;;6.97;5.17;;;24.00;39.90;;;;;;1852873;77;21056;-38
2021/11/13 00:12:28;;;;;;;7.50;5.70;;;24.00;40.00;;;;;;1852877;77;21121;-40
2021/11/13 00:14:55;;;;;;;6.83;5.87;;;23.90;39.80;;;;;;1852990;77;21519;-39
2021/11/13 00:17:23;;;;;;;6.58;5.17;;;23.90;39.80;;;;;;1853018;77;21510;-39
2021/11/13 00:19:51;;;;;;;6.95;5.08;;;23.90;39.80;;;;;;1853015;77;21071;-38
2021/11/13 00:22:18;;;;;;;6.03;4.92;;;23.90;39.90;;;;;;1852988;77;21484;-38
2021/11/13 00:24:46;;;;;;;9.43;6.33;;;23.90;39.90;;;;;;1852930;77;21532;-38
2021/11/13 00:27:13;;;;;;;8.20;6.40;;;23.90;40.00;;;;;;1852883;76;21135;-39
2021/11/13 00:29:41;;;;;;;7.08;5.62;;;23.90;40.20;;;;;;1852923;77;21075;-38
2021/11/13 00:32:09;;;;;;;6.75;6.03;;;23.90;40.30;;;;;;1852943;77;21075;-38
2021/11/13 00:34:37;;;;;;;7.00;6.03;;;23.90;40.30;;;;;;1852844;77;21064;-38
2021/11/13 00:37:04;;;;;;;8.03;5.50;;;23.90;40.20;;;;;;1852921;77;21079;-38
2021/11/13 00:39:32;;;;;;;7.08;5.45;;;23.90;40.20;;;;;;1853027;77;21524;-38
2021/11/13 00:42:00;;;;;;;7.47;5.95;;;23.90;40.10;;;;;;1853034;77;21536;-39
2021/11/13 00:44:27;;;;;;;6.00;5.20;;;23.90;40.10;;;;;;1853009;77;21520;-38
2021/11/13 00:46:54;;;;;;;7.78;5.87;;;23.90;40.00;;;;;;1853019;77;21533;-38
2021/11/13 00:49:22;;;;;;;5.62;5.03;;;23.90;40.00;;;;;;1852890;77;21047;-38
2021/11/13 00:51:49;;;;;;;6.70;5.60;;;23.90;40.10;;;;;;1853043;77;21532;-39
2021/11/13 00:54:17;;;;;;;7.17;6.17;;;23.90;40.10;;;;;;1847833;77;21153;-38
2021/11/13 00:56:46;;;;;;;7.17;5.60;;;23.90;40.10;;;;;;1847672;77;21512;-38
2021/11/13 00:59:14;;;;;;;7.42;6.10;;;23.80;40.10;;;;;;1847483;78;21151;-38
2021/11/13 01:01:42;;;;;;;7.30;5.95;;;23.80;40.10;;;;;;1847593;78;21108;-39
2021/11/13 01:04:10;;;;;;;8.85;6.17;;;23.80;40.20;;;;;;1847655;78;21178;-38
2021/11/13 01:06:37;;;;;;;8.60;5.97;;;23.80;40.20;;;;;;1847557;78;21068;-38
2021/11/13 01:09:05;;;;;;;8.23;6.45;;;23.80;40.20;;;;;;1847554;78;21116;-39
2021/11/13 01:11:32;;;;;;;6.90;6.03;;;23.80;40.30;;;;;;1847697;78;21485;-39
2021/11/13 01:14:01;;;;;;;7.15;6.42;;;23.80;40.30;;;;;;1847490;78;21024;-38
2021/11/13 01:16:29;;;;;;;8.45;6.55;;;23.80;40.30;;;;;;1847559;78;21080;-39
2021/11/13 01:18:57;;;;;;;6.85;5.92;;;23.80;40.30;;;;;;1847559;78;21106;-38
2021/11/13 01:21:24;;;;;;;7.35;6.45;;;23.80;40.30;;;;;;1847585;78;21115;-38
2021/11/13 01:23:52;;;;;;;7.20;5.97;;;23.80;40.30;;;;;;1847588;78;21067;-38
2021/11/13 01:26:20;;;;;;;6.92;5.95;;;23.80;40.30;;;;;;1847676;77;21552;-39
2021/11/13 01:28:47;;;;;;;6.78;5.92;;;23.80;40.30;;;;;;1847525;76;21186;-38
2021/11/13 01:31:15;;;;;;;8.20;5.95;;;23.80;40.30;;;;;;1847531;78;21666;-38
2021/11/13 01:33:43;;;;;;;6.87;6.12;;;23.80;40.30;;;;;;1847593;78;21080;-38
2021/11/13 01:36:11;;;;;;;7.58;6.42;;;23.80;40.30;;;;;;1847539;78;21565;-39
2021/11/13 01:38:38;;;;;;;7.65;6.85;;;23.80;40.40;;;;;;1847547;78;21051;-38
2021/11/13 01:41:06;;;;;;;7.67;6.25;;;23.80;40.50;;;;;;1847509;78;21076;-39
2021/11/13 01:43:36;;;;;;;7.97;5.95;;;23.80;40.70;;;;;;1847638;78;21091;-38
2021/11/13 01:46:04;;;;;;;7.83;6.42;;;23.80;40.80;;;;;;1846689;78;21173;-39
2021/11/13 01:48:32;;;;;;;9.43;6.70;;;23.80;40.90;;;;;;1847657;78;21619;-38
2021/11/13 01:50:59;;;;;;;7.22;6.50;;;23.80;40.90;;;;;;1847512;78;21198;-38
2021/11/13 01:53:28;;;;;;;6.80;6.10;;;23.80;41.30;;;;;;1849841;77;21103;-38
2021/11/13 01:55:56;;;;;;;6.80;6.10;;;23.80;40.80;;;;;;1852829;77;21065;-38
2021/11/13 01:58:24;;;;;;;6.90;6.08;;;23.80;40.70;;;;;;1852830;77;21118;-38
2021/11/13 02:00:54;;;;;;;7.92;6.30;;;23.80;40.80;;;;;;1852946;77;21469;-38
2021/11/13 02:03:22;;;;;;;7.33;6.10;;;23.80;40.70;;;;;;1852973;77;21543;-39
2021/11/13 02:05:50;;;;;;;9.50;6.85;;;23.80;40.70;;;;;;1853038;77;21446;-39
2021/11/13 02:08:18;;;;;;;7.55;6.28;;;23.70;40.70;;;;;;1852857;77;21121;-38
2021/11/13 02:10:46;;;;;;;10.08;7.00;;;23.80;40.90;;;;;;1852827;77;21067;-39
2021/11/13 02:13:14;;;;;;;7.00;6.30;;;23.70;40.90;;;;;;1852865;77;21016;-38
2021/11/13 02:15:41;;;;;;;10.25;6.25;;;23.80;41.00;;;;;;1852834;77;21040;-39
2021/11/13 02:18:09;;;;;;;10.88;6.55;;;23.80;41.10;;;;;;1852920;77;21039;-38
2021/11/13 02:20:40;;;;;;;7.95;6.12;;;23.80;41.20;;;;;;1852831;77;21040;-38
2021/11/13 02:23:18;;;;;;;7.50;6.53;;;23.70;41.20;;;;;;1851134;77;21055;-39
2021/11/13 02:25:46;;;;;;;7.85;5.95;;;23.70;41.10;;;;;;1852859;77;21083;-38
2021/11/13 02:28:15;;;;;;;6.75;5.95;;;23.70;41.20;;;;;;1852928;76;21208;-38
2021/11/13 02:30:43;;;;;;;7.28;6.25;;;23.70;41.10;;;;;;1852742;77;21356;-39
2021/11/13 02:33:10;;;;;;;7.65;5.45;;;23.70;41.10;;;;;;1852967;77;21602;-39
2021/11/13 02:35:38;;;;;;;7.25;5.80;;;23.70;41.10;;;;;;1852941;77;21036;-39
2021/11/13 02:38:14;;;;;;;7.20;6.28;;;23.70;41.10;;;;;;1852948;77;21039;-38
2021/11/13 02:40:43;;;;;;;7.60;5.72;;;23.70;41.00;;;;;;1853076;77;21567;-38
2021/11/13 02:43:11;;;;;;;6.95;6.15;;;23.70;41.10;;;;;;1853023;77;21129;-39
2021/11/13 02:45:39;;;;;;;6.28;5.50;;;23.70;41.10;;;;;;1852967;77;21075;-39
2021/11/13 02:48:07;;;;;;;6.95;6.25;;;23.70;41.20;;;;;;1853076;77;21577;-38
2021/11/13 02:50:35;;;;;;;7.40;6.08;;;23.70;41.30;;;;;;1853069;77;21481;-38
2021/11/13 02:53:03;;;;;;;7.15;6.08;;;23.70;41.30;;;;;;1852641;77;21067;-39
2021/11/13 02:55:31;;;;;;;6.50;5.80;;;23.70;41.30;;;;;;1847598;78;21084;-38
2021/11/13 02:57:59;;;;;;;6.92;5.85;;;23.70;41.30;;;;;;1847624;78;21096;-38
2021/11/13 03:00:28;;;;;;;6.50;5.83;;;23.70;41.30;;;;;;1847743;78;21516;-39
2021/11/13 03:02:56;;;;;;;7.17;6.40;;;23.70;41.30;;;;;;1847598;78;21099;-39
2021/11/13 03:05:31;;;;;;;6.90;5.85;;;23.70;41.30;;;;;;1847673;78;21686;-39
2021/11/13 03:08:01;;;;;;;7.08;6.37;;;23.70;41.30;;;;;;1847594;78;21088;-38
2021/11/13 03:10:30;;;;;;;7.67;6.80;;;23.70;41.30;;;;;;1847229;78;21541;-38
2021/11/13 03:12:58;;;;;;;6.78;6.05;;;23.70;41.30;;;;;;1847590;78;21107;-38
2021/11/13 03:15:26;;;;;;;7.45;6.62;;;23.70;41.40;;;;;;1847650;78;21516;-38
2021/11/13 03:17:54;;;;;;;7.00;6.30;;;23.70;41.40;;;;;;1847587;78;21108;-39
2021/11/13 03:20:23;;;;;;;7.20;6.37;;;23.70;41.50;;;;;;1847609;78;21513;-39
2021/11/13 03:22:50;;;;;;;7.20;6.50;;;23.70;41.50;;;;;;1847785;78;21047;-38
2021/11/13 03:25:21;;;;;;;6.70;6.00;;;23.70;41.50;;;;;;1847613;78;21100;-39
2021/11/13 03:27:51;;;;;;;6.28;5.67;;;23.70;41.50;;;;;;1846865;76;21573;-39
2021/11/13 03:30:19;;;;;;;6.75;6.05;;;23.70;41.50;;;;;;1847709;78;21127;-39
2021/11/13 03:32:46;;;;;;;6.45;5.85;;;23.70;41.60;;;;;;1847686;78;21079;-38
2021/11/13 03:35:15;;;;;;;6.72;6.12;;;23.70;41.60;;;;;;1847682;78;21559;-38
2021/11/13 03:37:43;;;;;;;7.08;6.37;;;23.70;41.60;;;;;;1847662;78;21093;-38
2021/11/13 03:40:11;;;;;;;6.50;5.87;;;23.60;41.50;;;;;;1847634;77;21103;-38
2021/11/13 03:42:40;;;;;;;6.50;5.83;;;23.70;41.60;;;;;;1847601;78;21106;-39
2021/11/13 03:45:09;;;;;;;6.47;5.78;;;23.70;41.60;;;;;;1847786;78;21508;-39
2021/11/13 03:47:36;;;;;;;6.50;5.90;;;23.70;41.60;;;;;;1847585;78;21108;-39
2021/11/13 03:50:05;;;;;;;6.72;6.03;;;23.70;41.70;;;;;;1847724;78;21160;-39
2021/11/13 03:52:33;;;;;;;6.35;5.33;;;23.70;41.70;;;;;;1847581;78;21039;-38
2021/11/13 03:55:00;;;;;;;5.85;5.30;;;23.70;41.70;;;;;;1847521;77;21585;-39
2021/11/13 03:57:28;;;;;;;6.35;5.47;;;23.70;41.70;;;;;;1847549;78;21068;-39
2021/11/13 03:59:55;;;;;;;6.35;5.75;;;23.70;41.70;;;;;;1847567;78;21112;-38
2021/11/13 04:02:23;;;;;;;6.12;5.50;;;23.70;41.70;;;;;;1847595;78;21643;-38
2021/11/13 04:04:51;;;;;;;6.42;5.72;;;23.70;41.70;;;;;;1847592;78;21623;-38
2021/11/13 04:07:18;;;;;;;6.20;5.60;;;23.70;41.70;;;;;;1847681;78;21598;-39
2021/11/13 04:09:46;;;;;;;6.30;5.70;;;23.70;41.70;;;;;;1847663;78;21124;-39
2021/11/13 04:12:14;;;;;;;6.10;5.47;;;23.70;41.80;;;;;;1847535;78;21612;-38
2021/11/13 04:14:45;;;;;;;5.95;5.35;;;23.70;41.80;;;;;;1847579;78;21586;-39
2021/11/13 04:17:13;;;;;;;6.45;5.70;;;23.60;41.70;;;;;;1847872;78;21072;-39
2021/11/13 04:19:41;;;;;;;6.17;5.58;;;23.60;41.80;;;;;;1847690;78;21513;-38
2021/11/13 04:22:08;;;;;;;6.85;6.15;;;23.60;41.80;;;;;;1847665;78;21569;-39
2021/11/13 04:24:36;;;;;;;6.08;5.47;;;23.60;41.80;;;;;;1847644;78;21492;-38
2021/11/13 04:27:04;;;;;;;6.12;5.47;;;23.60;41.80;;;;;;1847585;78;21219;-38
2021/11/13 04:29:32;;;;;;;6.20;5.60;;;23.70;41.90;;;;;;1847631;76;21676;-38
2021/11/13 04:31:59;;;;;;;5.85;5.28;;;23.60;41.80;;;;;;1847587;78;21116;-38
2021/11/13 04:34:28;;;;;;;6.80;6.00;;;23.60;41.90;;;;;;1847640;78;21524;-39
2021/11/13 04:36:59;;;;;;;5.95;5.35;;;23.60;42.00;;;;;;1847603;78;21611;-39
2021/11/13 04:39:27;;;;;;;6.03;5.47;;;23.60;42.00;;;;;;1847322;78;21107;-38
2021/11/13 04:41:54;;;;;;;5.97;5.25;;;23.60;42.00;;;;;;1847594;78;21583;-39
2021/11/13 04:44:22;;;;;;;6.20;5.60;;;23.60;42.00;;;;;;1847543;78;21104;-38
2021/11/13 04:46:49;;;;;;;5.87;5.30;;;23.60;42.00;;;;;;1847627;78;21584;-39
2021/11/13 04:49:17;;;;;;;5.78;5.28;;;23.60;42.00;;;;;;1847495;78;21110;-38
2021/11/13 04:51:44;;;;;;;6.20;5.60;;;23.60;42.00;;;;;;1847536;77;21084;-38
2021/11/13 04:54:12;;;;;;;6.03;5.30;;;23.60;42.10;;;;;;1848366;77;21213;-38
2021/11/13 04:56:39;;;;;;;5.58;5.08;;;23.60;42.00;;;;;;1852828;77;21525;-38
2021/11/13 04:59:07;;;;;;;6.00;5.40;;;23.60;42.10;;;;;;1853013;77;21528;-38
2021/11/13 05:01:35;;;;;;;5.65;5.12;;;23.60;42.20;;;;;;1852916;77;21547;-39
2021/11/13 05:04:02;;;;;;;5.70;5.20;;;23.60;42.20;;;;;;1852918;77;21485;-38
2021/11/13 05:06:30;;;;;;;5.72;5.12;;;23.60;42.20;;;;;;1852973;77;21570;-38
2021/11/13 05:08:58;;;;;;;6.30;5.70;;;23.60;42.20;;;;;;1852981;77;21039;-38
2021/11/13 05:11:25;;;;;;;5.17;4.70;;;23.60;42.10;;;;;;1852909;77;21157;-38
2021/11/13 05:13:53;;;;;;;5.40;4.90;;;23.60;42.70;;;;;;1852920;77;21078;-39
2021/11/13 05:16:20;;;;;;;5.10;4.60;;;23.60;42.10;;;;;;1852908;77;21524;-38
2021/11/13 05:18:48;;;;;;;5.55;4.97;;;23.60;42.10;;;;;;1852898;77;21137;-39
2021/11/13 05:21:15;;;;;;;5.45;4.95;;;23.60;42.70;;;;;;1852845;77;21047;-39
2021/11/13 05:23:43;;;;;;;5.03;4.53;;;23.60;42.20;;;;;;1853008;77;21540;-38
2021/11/13 05:26:10;;;;;;;5.10;4.60;;;23.60;42.20;;;;;;1852931;77;21497;-39
2021/11/13 05:28:43;;;;;;;5.50;5.00;;;23.60;42.20;;;;;;1852844;76;21611;-38
2021/11/13 05:31:07;;;;;;;5.33;4.83;;;23.60;42.20;;;;;;1852039;77;21059;-39
2021/11/13 05:33:35;;;;;;;5.47;4.97;;;23.60;42.20;;;;;;1852825;77;21160;-40
2021/11/13 05:36:02;;;;;;;5.33;4.83;;;23.60;42.20;;;;;;1853165;77;21556;-38
2021/11/13 05:38:31;;;;;;;5.03;4.62;;;23.60;42.30;;;;;;1852879;77;21121;-38
2021/11/13 05:40:58;;;;;;;6.33;4.60;;;23.60;42.30;;;;;;1852882;77;21535;-38
2021/11/13 05:43:25;;;;;;;4.42;4.03;;;23.60;42.30;;;;;;1852839;77;21156;-38
2021/11/13 05:45:53;;;;;;;5.15;4.65;;;23.60;42.20;;;;;;1852865;77;21137;-38
2021/11/13 05:48:20;;;;;;;4.92;4.40;;;23.60;42.30;;;;;;1852858;77;21579;-39
2021/11/13 05:50:48;;;;;;;5.15;4.70;;;23.60;42.30;;;;;;1852895;77;21521;-38
2021/11/13 05:53:15;;;;;;;4.85;4.40;;;23.60;42.30;;;;;;1852837;77;21063;-38
2021/11/13 05:55:42;;;;;;;5.80;4.60;;;23.60;42.30;;;;;;1849727;77;21532;-39
2021/11/13 05:58:10;;;;;;;4.92;4.45;;;23.60;42.30;;;;;;1847486;78;21064;-39
2021/11/13 06:00:38;;;;;;;5.08;4.58;;;23.60;42.40;;;;;;1847633;78;21538;-39
2021/11/13 06:03:05;;;;;;;5.22;4.55;;;23.60;42.30;;;;;;1847590;78;21147;-39
2021/11/13 06:05:33;;;;;;;4.70;4.28;;;23.60;42.40;;;;;;1847682;78;21576;-38
2021/11/13 06:08:00;;;;;;;5.08;4.50;;;23.60;42.40;;;;;;1847709;78;21112;-38
2021/11/13 06:10:27;;;;;;;4.00;3.62;;;23.60;42.50;;;;;;1847681;78;21572;-39
2021/11/13 06:12:55;;;;;;;4.80;4.40;;;23.60;42.40;;;;;;1847599;78;21119;-38
2021/11/13 06:15:22;;;;;;;4.92;4.40;;;23.60;42.40;;;;;;1847557;78;21654;-39
2021/11/13 06:17:50;;;;;;;4.58;4.17;;;23.60;42.40;;;;;;1847591;78;21068;-39
2021/11/13 06:20:17;;;;;;;4.40;4.00;;;23.60;42.40;;;;;;1847602;78;21525;-39
2021/11/13 06:22:45;;;;;;;4.87;4.17;;;23.60;42.40;;;;;;1847590;78;21181;-39
2021/11/13 06:25:14;;;;;;;4.65;4.22;;;23.60;42.50;;;;;;1847693;77;21525;-39
2021/11/13 06:27:41;;;;;;;4.53;4.10;;;23.60;42.50;;;;;;1847585;76;21548;-39
2021/11/13 06:30:10;;;;;;;5.37;4.25;;;23.60;42.50;;;;;;1847550;78;21129;-39
2021/11/13 06:32:38;;;;;;;5.75;4.40;;;23.60;42.60;;;;;;1847606;78;21169;-39
2021/11/13 06:35:07;;;;;;;5.72;4.45;;;23.60;42.60;;;;;;1847666;77;21181;-39
2021/11/13 06:37:35;;;;;;;10.45;4.53;;;23.60;42.60;;;;;;1847586;78;21209;-38
2021/11/13 06:40:05;;;;;;;11.53;5.42;;;23.60;42.70;;;;;;1847584;78;21529;-39
2021/11/13 06:42:33;;;;;;;7.92;4.45;;;23.60;42.60;;;;;;1847751;78;21540;-38
2021/11/13 06:45:01;;;;;;;9.35;4.28;;;23.60;42.60;;;;;;1847591;78;21827;-38
2021/11/13 06:47:28;;;;;;;8.58;4.97;;;23.60;42.60;;;;;;1847713;78;21595;-38
2021/11/13 06:49:56;;;;;;;6.65;4.40;;;23.60;42.60;;;;;;1847813;78;21513;-39
2021/11/13 06:52:24;;;;;;;11.57;4.12;;;23.60;42.60;;;;;;1847755;78;21544;-38
2021/11/13 06:54:51;;;;;;;10.70;4.30;;;23.60;42.60;;;;;;1847669;77;21174;-39
2021/11/13 06:57:19;;;;;;;11.70;3.87;;;23.60;42.60;;;;;;1852879;77;21598;-38
2021/11/13 06:59:46;;;;;;;9.88;4.25;;;23.60;42.60;;;;;;1852964;77;21052;-39
2021/11/13 07:02:15;;;;;;;8.83;4.53;;;23.60;42.60;;;;;;1852811;77;21075;-39
2021/11/13 07:04:43;;;;;;;6.35;4.33;;;23.60;42.60;;;;;;1852857;77;21154;-39
2021/11/13 07:07:11;;;;;;;7.55;4.33;;;23.60;42.70;;;;;;1852835;77;21079;-38
2021/11/13 07:09:39;;;;;;;6.85;4.72;;;23.60;42.70;;;;;;1852850;77;21075;-39
2021/11/13 07:12:08;;;;;;;9.28;5.17;;;23.60;42.70;;;;;;1852792;77;21129;-39
2021/11/13 07:14:36;;;;;;;14.20;5.05;;;23.60;42.90;;;;;;1852746;77;21099;-38
2021/11/13 07:17:04;;;;;;;11.95;5.67;;;23.60;43.00;;;;;;1852727;77;21540;-39
2021/11/13 07:19:32;;;;;;;19.50;5.97;;;23.60;43.20;;;;;;1852833;77;21521;-39
2021/11/13 07:21:59;;;;;;;16.67;6.33;;;23.60;43.40;;;;;;1852849;77;21117;-39
2021/11/13 07:24:27;;;;;;;9.85;4.97;;;23.60;43.60;;;;;;1852792;77;21145;-39
2021/11/13 07:26:54;;;;;;;10.20;4.90;;;23.60;43.80;;;;;;1852926;77;21528;-39
2021/11/13 07:29:28;;;;;;;6.20;4.83;;;23.60;43.90;;;;;;1852901;76;21572;-39
2021/11/13 07:31:51;;;;;;;7.15;4.83;;;23.60;43.90;;;;;;1851627;77;21075;-39
2021/11/13 07:34:19;;;;;;;10.65;5.67;;;23.60;43.80;;;;;;1852704;77;21068;-37
2021/11/13 07:36:46;;;;;;;11.15;5.35;;;23.60;43.80;;;;;;1852822;77;21032;-38
2021/11/13 07:39:13;;;;;;;8.68;5.22;;;23.60;43.90;;;;;;1852877;77;21601;-38
2021/11/13 07:41:41;;;;;;;8.60;5.50;;;23.60;44.00;;;;;;1852911;77;21140;-38
2021/11/13 07:44:08;;;;;;;10.78;6.15;;;23.70;44.00;;;;;;1852857;77;21040;-38
2021/11/13 07:46:36;;;;;;;9.83;5.75;;;23.70;43.90;;;;;;1852961;77;21118;-38
2021/11/13 07:49:04;;;;;;;7.17;5.42;;;23.70;43.70;;;;;;1852796;77;21524;-38
2021/11/13 07:51:31;;;;;;;6.78;5.72;;;23.70;43.70;;;;;;1852822;77;21059;-38
2021/11/13 07:53:59;;;;;;;8.03;6.12;;;23.70;43.70;;;;;;1852806;77;21079;-38
2021/11/13 07:56:26;;;;;;;10.50;6.67;;;23.70;43.50;;;;;;1850124;77;21071;-38
2021/11/13 07:58:54;;;;;;;17.48;6.72;;;23.70;43.50;;;;;;1847551;78;21561;-38
2021/11/13 08:01:22;;;;;;;11.60;6.15;;;23.70;43.80;;;;;;1847554;78;21497;-40
2021/11/13 08:03:50;;;;;;;8.78;6.15;;;23.70;44.10;;;;;;1847563;78;21587;-38
2021/11/13 08:06:17;;;;;;;9.50;6.62;;;23.70;44.20;;;;;;1847385;78;21031;-38
2021/11/13 08:08:45;;;;;;;9.18;6.25;;;23.70;44.20;;;;;;1847501;78;21083;-38
2021/11/13 08:11:12;;;;;;;13.68;6.55;;;23.70;44.20;;;;;;1847432;78;21529;-38
2021/11/13 08:13:42;;;;;;;12.98;6.62;;;23.70;43.50;;;;;;1847551;78;21552;-38
2021/11/13 08:16:09;;;;;;;21.80;6.78;;;23.70;44.20;;;;;;1847332;78;21104;-38
2021/11/13 08:18:37;;;;;;;15.85;7.28;;;23.70;43.50;;;;;;1847438;78;21134;-38
2021/11/13 08:21:04;;;;;;;18.92;7.30;;;23.70;43.30;;;;;;1847413;77;21071;-38
2021/11/13 08:23:32;;;;;;;11.90;6.53;;;23.70;43.20;;;;;;1847435;78;21465;-38
2021/11/13 08:26:00;;;;;;;10.82;6.58;;;23.70;43.10;;;;;;1847520;78;21626;-43
2021/11/13 08:28:27;;;;;;;10.30;6.53;;;23.70;43.10;;;;;;1847547;76;21115;-39
2021/11/13 08:30:55;;;;;;;8.98;6.22;;;23.70;43.10;;;;;;1847468;78;21064;-39
2021/11/13 08:33:23;;;;;;;6.95;6.00;;;23.70;43.10;;;;;;1847384;78;21075;-39
2021/11/13 08:35:51;;;;;;;7.08;6.08;;;23.70;43.00;;;;;;1847405;78;21049;-39
2021/11/13 08:38:20;;;;;;;8.53;5.92;;;23.70;43.00;;;;;;1847504;78;21166;-39
2021/11/13 08:40:48;;;;;;;8.23;6.05;;;23.70;43.00;;;;;;1847437;78;21039;-39
2021/11/13 08:43:16;;;;;;;8.43;5.87;;;23.70;43.00;;;;;;1847417;78;21092;-39
2021/11/13 08:45:44;;;;;;;6.85;5.95;;;23.70;42.90;;;;;;1847457;77;21556;-39
2021/11/13 08:48:11;;;;;;;7.92;5.95;;;23.70;43.00;;;;;;1847390;78;21121;-39
2021/11/13 08:50:40;;;;;;;6.53;5.62;;;23.70;43.00;;;;;;1847460;78;21071;-39
2021/11/13 08:53:08;;;;;;;6.58;5.67;;;23.70;43.00;;;;;;1847519;77;21564;-39
2021/11/13 08:55:38;;;;;;;6.78;6.03;;;23.70;43.00;;;;;;1847526;78;21592;-39
2021/11/13 08:58:07;;;;;;;6.50;5.90;;;23.70;43.00;;;;;;1847552;77;21726;-39
2021/11/13 09:00:40;;;;;;;7.53;5.97;;;23.70;43.10;;;;;;1847401;78;21075;-39
2021/11/13 09:03:10;;;;;;;7.35;5.78;;;23.70;43.10;;;;;;1847004;78;21071;-39
2021/11/13 09:05:37;;;;;;;7.28;5.85;;;23.70;43.20;;;;;;1847527;77;21105;-39
2021/11/13 09:08:07;;;;;;;20.88;6.83;;;23.70;43.20;;;;;;1847446;78;21059;-39
2021/11/13 09:10:34;;;;;;;13.43;6.25;;;23.70;43.70;;;;;;1847468;78;21205;-38
2021/11/13 09:13:02;;;;;;;7.72;6.17;;;23.70;44.30;;;;;;1847464;78;21067;-39
2021/11/13 09:15:31;;;;;;;6.70;5.78;;;23.70;45.10;;;;;;1847554;77;21171;-39
2021/11/13 09:17:58;;;;;;;8.63;5.85;;;23.70;44.30;;;;;;1847516;78;21064;-38
2021/11/13 09:20:26;;;;;;;6.15;5.55;;;23.70;44.10;;;;;;1847616;78;21619;-39
2021/11/13 09:22:54;;;;;;;8.10;5.65;;;23.70;43.90;;;;;;1847423;78;21067;-39
2021/11/13 09:25:22;;;;;;;6.08;5.47;;;23.70;43.70;;;;;;1847427;78;21044;-38
2021/11/13 09:27:49;;;;;;;6.90;6.20;;;23.70;43.60;;;;;;1847346;76;21528;-38
2021/11/13 09:30:20;;;;;;;69.65;12.93;;;23.70;43.60;;;;;;1847518;78;21084;-38
2021/11/13 09:32:47;;;;;;;131.80;15.10;;;23.70;44.60;;;;;;1847414;77;21170;-38
2021/11/13 09:35:15;;;;;;;66.12;10.25;;;23.70;45.50;;;;;;1847432;78;21058;-39
2021/11/13 09:37:46;;;;;;;17.48;6.95;;;23.70;45.40;;;;;;1847383;78;21056;-39
2021/11/13 09:40:12;;;;;;;12.98;6.30;;;23.70;46.10;;;;;;1847135;78;21116;-39
2021/11/13 09:42:42;;;;;;;8.45;5.40;;;23.70;45.70;;;;;;1847381;78;21122;-39
2021/11/13 09:45:09;;;;;;;7.95;5.53;;;23.70;45.50;;;;;;1847331;78;21092;-38
2021/11/13 09:47:37;;;;;;;6.42;5.83;;;23.70;45.60;;;;;;1847456;78;21592;-39
2021/11/13 09:50:06;;;;;;;7.40;5.53;;;23.70;45.70;;;;;;1847534;77;21545;-39
2021/11/13 09:52:33;;;;;;;6.67;5.58;;;23.70;45.70;;;;;;1847413;78;21047;-39
2021/11/13 09:55:01;;;;;;;8.38;5.40;;;23.70;46.00;;;;;;1847411;78;21095;-39
2021/11/13 09:57:29;;;;;;;7.30;5.72;;;23.70;45.70;;;;;;1849996;77;21161;-38
2021/11/13 09:59:57;;;;;;;7.58;6.78;;;23.70;45.80;;;;;;1852872;77;21083;-39
2021/11/13 10:02:24;;;;;;;12.35;6.53;;;23.70;45.30;;;;;;1852848;77;21586;-38
2021/11/13 10:04:52;;;;;;;8.30;6.40;;;23.70;44.90;;;;;;1852771;77;21508;-49
2021/11/13 10:07:19;;;;;;;7.05;6.35;;;23.70;44.70;;;;;;1852739;77;21141;-39
2021/11/13 10:09:50;;;;;;;7.67;6.87;;;23.70;44.50;;;;;;1852806;77;21609;-39
2021/11/13 10:12:17;;;;;;;7.08;6.37;;;23.70;44.20;;;;;;1852826;77;21546;-39
2021/11/13 10:14:45;;;;;;;8.53;6.65;;;23.70;44.00;;;;;;1852812;77;21516;-39
2021/11/13 10:17:21;;;;;;;7.30;6.50;;;23.70;43.90;;;;;;1852792;77;21578;-39
2021/11/13 10:19:49;;;;;;;7.15;6.45;;;23.70;43.80;;;;;;1852871;77;21086;-39
2021/11/13 10:22:16;;;;;;;7.65;6.65;;;23.70;44.40;;;;;;1852664;77;21657;-43
2021/11/13 10:24:49;;;;;;;7.97;7.17;;;23.70;43.80;;;;;;1852785;77;21484;-39
2021/11/13 10:27:17;;;;;;;7.00;6.30;;;23.70;43.80;;;;;;1852872;77;21493;-39
2021/11/13 10:29:46;;;;;;;6.92;6.03;;;23.70;43.80;;;;;;1852664;76;21068;-39
2021/11/13 10:32:16;;;;;;;6.60;5.90;;;23.70;43.70;;;;;;1852628;77;21074;-39
2021/11/13 10:34:46;;;;;;;7.55;5.75;;;23.70;43.70;;;;;;1852719;77;21044;-39
2021/11/13 10:37:20;;;;;;;9.13;6.10;;;23.70;43.70;;;;;;1852334;77;21051;-39
2021/11/13 10:39:48;;;;;;;7.12;6.42;;;23.70;43.70;;;;;;1852715;77;21040;-39
2021/11/13 10:42:20;;;;;;;8.55;6.22;;;23.70;43.70;;;;;;1852700;77;21648;-39
2021/11/13 10:44:50;;;;;;;6.25;5.65;;;23.70;43.70;;;;;;1852715;77;21036;-39
2021/11/13 10:47:20;;;;;;;7.22;6.53;;;23.70;43.70;;;;;;1852309;77;21117;-39
2021/11/13 10:49:49;;;;;;;6.60;5.95;;;23.70;43.70;;;;;;1852861;77;21044;-39
2021/11/13 10:52:17;;;;;;;8.63;6.17;;;23.60;43.70;;;;;;1853050;77;21532;-39
2021/11/13 10:54:48;;;;;;;7.55;6.35;;;23.70;43.60;;;;;;1852790;77;21137;-39
2021/11/13 10:57:30;;;;;;;6.75;6.05;;;23.70;43.60;;;;;;1851817;77;21088;-39
2021/11/13 10:59:59;;;;;;;;;;;23.70;43.70;;;;;;1850468;78;21182;-39
2021/11/13 11:02:26;;;;;;;7.05;6.35;;;23.50;43.80;;;;;;1847519;77;20417;-39
2021/11/13 11:04:53;;;;;;;9.28;6.20;;;23.50;44.10;;;;;;1847689;78;21162;-39
2021/11/13 11:07:24;;;;;;;7.20;6.50;;;23.60;43.90;;;;;;1847691;78;21116;-39
2021/11/13 11:10:00;;;;;;;8.43;7.53;;;23.60;43.80;;;;;;1847121;78;21056;-39
2021/11/13 11:12:29;;;;;;;7.33;6.62;;;23.70;43.80;;;;;;1847641;78;21199;-39
2021/11/13 11:14:57;;;;;;;7.30;6.40;;;23.70;43.90;;;;;;1847695;78;21111;-39
2021/11/13 11:17:27;;;;;;;7.35;6.65;;;23.70;43.80;;;;;;1847591;78;21108;-39
2021/11/13 11:19:56;;;;;;;8.73;6.72;;;23.70;43.80;;;;;;1847142;78;21138;-39
2021/11/13 11:22:25;;;;;;;8.23;6.80;;;23.70;43.90;;;;;;1847667;78;21100;-39
2021/11/13 11:24:54;;;;;;;7.47;6.67;;;23.70;43.90;;;;;;1847755;78;21549;-39
2021/11/13 11:27:30;;;;;;;6.53;5.78;;;23.70;43.90;;;;;;1847871;78;21149;-39
2021/11/13 11:30:00;;;;;;;7.15;6.22;;;23.70;43.90;;;;;;1847502;76;21087;-38
2021/11/13 11:32:43;;;;;;;6.95;6.05;;;23.70;44.00;;;;;;1847804;78;21119;-36
2021/11/13 11:35:14;;;;;;;6.62;5.92;;;23.70;46.60;;;;;;1847577;78;21603;-57
2021/11/13 11:37:45;;;;;;;6.50;5.87;;;23.60;45.60;;;;;;1847754;78;21079;-39
2021/11/13 11:40:14;;;;;;;6.50;5.85;;;23.50;44.90;;;;;;1847360;78;21123;-50
2021/11/13 11:42:43;;;;;;;8.08;6.25;;;23.60;45.10;;;;;;1847615;78;21129;-49
2021/11/13 11:45:13;;;;;;;8.30;6.78;;;23.60;45.20;;;;;;1846981;78;21622;-46
2021/11/13 11:47:42;;;;;;;7.33;6.62;;;23.60;46.20;;;;;;1847651;78;21167;-44
2021/11/13 11:50:11;;;;;;;9.48;6.80;;;23.60;46.30;;;;;;1847479;78;21520;-43
2021/11/13 11:52:44;;;;;;;7.33;6.62;;;23.70;45.50;;;;;;1847674;78;21146;-46
2021/11/13 11:55:13;;;;;;;8.33;6.90;;;23.70;45.40;;;;;;1847702;78;21524;-46
2021/11/13 11:57:43;;;;;;;6.95;6.25;;;23.60;45.00;;;;;;1847608;76;21237;-53
2021/11/13 12:00:13;;;;;;;7.60;6.80;;;23.60;45.00;;;;;;1847625;78;21052;-46
2021/11/13 12:02:50;;;;;;;7.33;6.62;;;23.60;44.90;;;;;;1847625;78;21133;-48
2021/11/13 12:05:20;;;;;;;7.50;6.05;;;23.60;44.70;;;;;;1847734;78;21523;-42
2021/11/13 12:07:49;;;;;;;6.78;6.10;;;23.60;44.50;;;;;;1847755;78;21480;-48
2021/11/13 12:10:29;;;;;;;7.42;6.22;;;23.60;44.40;;;;;;1847719;78;21559;-50
2021/11/13 12:13:09;;;;;;;7.83;7.03;;;23.60;44.30;;;;;;1846574;78;21108;-49
2021/11/13 12:15:54;;;;;;;9.45;7.45;;;23.60;44.30;;;;;;1847833;78;21520;-45
2021/11/13 12:18:27;;;;;;;7.53;6.35;;;23.60;44.40;;;;;;1847665;77;21035;-45
2021/11/13 12:21:04;;;;;;;7.30;6.60;;;23.50;44.40;;;;;;1847699;78;21067;-42
2021/11/13 12:23:45;;;;;;;9.38;7.45;;;23.50;44.40;;;;;;1847560;77;21611;-47
2021/11/13 12:26:20;;;;;;;8.48;6.55;;;23.50;44.40;;;;;;1847906;78;21528;-47
2021/11/13 12:28:51;;;;;;;9.23;7.30;;;23.50;44.50;;;;;;1847616;76;21136;-44
2021/11/13 12:31:24;;;;;;;7.50;6.70;;;23.50;44.50;;;;;;1848050;78;21571;-47
2021/11/13 12:33:55;;;;;;;7.35;6.45;;;23.50;44.50;;;;;;1847491;78;21088;-45
2021/11/13 12:36:25;;;;;;;8.78;6.85;;;23.50;44.50;;;;;;1847755;78;21051;-46
2021/11/13 12:39:01;;;;;;;12.63;9.03;;;23.60;44.60;;;;;;1847606;78;21558;-46
2021/11/13 12:41:38;;;;;;;9.35;7.97;;;23.60;44.60;;;;;;1847677;78;21131;-48
2021/11/13 12:44:11;;;;;;;7.95;6.97;;;23.60;45.30;;;;;;1847548;78;21185;-46
2021/11/13 12:46:49;;;;;;;9.98;7.22;;;23.60;44.80;;;;;;1847597;78;21106;-51
2021/11/13 12:49:22;;;;;;;9.18;8.18;;;23.60;44.80;;;;;;1847623;78;21159;-43
2021/11/13 12:51:57;;;;;;;8.28;7.47;;;23.50;44.70;;;;;;1847617;78;21138;-44